createdAt,value
2023-04-06T00:00:58.763Z,99098.50
2023-04-06T00:03:29.450Z,99098.08
2023-04-06T00:05:58.720Z,99103.11
2023-04-06T00:08:28.009Z,99108.42
2023-04-06T00:10:56.484Z,99108.90
2023-04-06T00:13:26.806Z,99112.85
2023-04-06T00:15:55.187Z,99111.77
2023-04-06T00:18:23.979Z,99110.57
2023-04-06T00:20:52.214Z,99117.64
2023-04-06T00:23:20.781Z,99107.59
2023-04-06T00:25:49.745Z,99107.32
2023-04-06T00:28:18.765Z,99110.77
2023-04-06T00:30:48.594Z,99109.59
2023-04-06T00:33:16.949Z,99109.31
2023-04-06T00:35:45.402Z,99114.48
2023-04-06T00:38:13.919Z,99115.71
2023-04-06T00:40:42.806Z,99115.66
2023-04-06T00:43:14.973Z,99118.88
2023-04-06T00:45:44.098Z,99118.20
2023-04-06T00:48:20.242Z,99122.86
2023-04-06T00:50:48.618Z,99123.59
2023-04-06T00:53:17.438Z,99118.70
2023-04-06T00:55:47.028Z,99117.52
2023-04-06T00:58:16.067Z,99118.01
2023-04-06T01:00:53.718Z,99125.52
2023-04-06T01:03:24.373Z,99123.75
2023-04-06T01:05:56.930Z,99123.25
2023-04-06T01:08:27.217Z,99127.42
2023-04-06T01:11:02.033Z,99125.89
2023-04-06T01:13:31.644Z,99127.60
2023-04-06T01:16:07.312Z,99124.54
2023-04-06T01:18:49.765Z,99120.91
2023-04-06T01:21:21.232Z,99122.77
2023-04-06T01:24:06.373Z,99119.98
2023-04-06T01:26:45.202Z,99120.21
2023-04-06T01:29:13.525Z,99119.27
2023-04-06T01:31:41.888Z,99120.99
2023-04-06T01:34:10.127Z,99122.95
2023-04-06T01:36:38.626Z,99125.42
2023-04-06T01:39:20.541Z,99133.27
2023-04-06T01:41:49.312Z,99134.41
2023-04-06T01:44:18.474Z,99132.94
2023-04-06T01:46:47.706Z,99134.23
2023-04-06T01:49:18.547Z,99133.23
2023-04-06T01:51:52.169Z,99136.86
2023-04-06T01:54:23.812Z,99138.84
2023-04-06T01:56:55.196Z,99138.66
2023-04-06T01:59:33.500Z,99137.69
2023-04-06T02:02:07.565Z,99143.45
2023-04-06T02:04:36.585Z,99140.97
2023-04-06T02:07:12.554Z,99145.32
2023-04-06T02:09:41.745Z,99148.11
2023-04-06T02:12:13.501Z,99146.98
2023-04-06T02:14:43.547Z,99151.15
2023-04-06T02:17:12.322Z,99148.84
2023-04-06T02:19:40.407Z,99153.47
2023-04-06T02:22:12.046Z,99156.53
2023-04-06T02:24:41.395Z,99155.00
2023-04-06T02:27:09.847Z,99157.02
2023-04-06T02:29:39.769Z,99156.95
2023-04-06T02:32:08.183Z,99158.02
2023-04-06T02:34:36.935Z,99159.10
2023-04-06T02:37:06.752Z,99165.05
2023-04-06T02:39:34.922Z,99166.16
2023-04-06T02:42:03.659Z,99169.05
2023-04-06T02:44:31.987Z,99167.88
2023-04-06T02:47:03.183Z,99169.13
2023-04-06T02:49:31.965Z,99171.26
2023-04-06T02:52:01.178Z,99172.61
2023-04-06T02:54:33.312Z,99174.23
2023-04-06T02:57:02.323Z,99178.80
2023-04-06T02:59:39.542Z,99181.09
2023-04-06T03:02:14.692Z,99183.45
2023-04-06T03:04:43.901Z,99183.55
2023-04-06T03:07:20.397Z,99183.67
2023-04-06T03:09:48.797Z,99192.19
2023-04-06T03:12:17.062Z,99193.61
2023-04-06T03:15:10.665Z,99205.68
2023-04-06T03:17:40.680Z,99201.61
2023-04-06T03:20:11.526Z,99204.19
2023-04-06T03:22:43.956Z,99204.55
2023-04-06T03:25:13.937Z,99204.70
2023-04-06T03:27:42.614Z,99205.36
2023-04-06T03:30:18.838Z,99204.58
2023-04-06T03:32:49.109Z,99206.89
2023-04-06T03:35:17.887Z,99209.96
2023-04-06T03:37:48.635Z,99207.89
2023-04-06T03:40:17.691Z,99209.27
2023-04-06T03:42:46.065Z,99204.08
2023-04-06T03:45:15.772Z,99210.77
2023-04-06T03:47:48.779Z,99212.02
2023-04-06T03:50:17.351Z,99212.42
2023-04-06T03:52:46.608Z,99208.91
2023-04-06T03:55:16.996Z,99213.67
2023-04-06T03:57:45.573Z,99216.36
2023-04-06T04:00:16.666Z,99215.83
2023-04-06T04:02:45.347Z,99217.30
2023-04-06T04:05:16.127Z,99216.48
2023-04-06T04:07:44.733Z,99216.48
2023-04-06T04:15:49.381Z,99228.95
2023-04-06T04:18:20.213Z,99225.90
2023-04-06T04:20:48.715Z,99234.42
2023-04-06T04:23:23.889Z,99240.61
2023-04-06T04:25:52.757Z,99239.06
2023-04-06T04:28:21.227Z,99240.06
2023-04-06T04:30:54.340Z,99240.14
2023-04-06T04:33:25.358Z,99241.72
2023-04-06T04:35:55.135Z,99238.32
2023-04-06T04:38:24.889Z,99249.98
2023-04-06T04:40:55.733Z,99247.38
2023-04-06T04:43:30.724Z,99247.64
2023-04-06T04:46:02.134Z,99252.63
2023-04-06T04:48:41.758Z,99258.36
2023-04-06T04:51:10.556Z,99254.31
2023-04-06T04:53:50.712Z,99258.94
2023-04-06T04:56:25.328Z,99263.00
2023-04-06T04:58:58.147Z,99266.12
2023-04-06T05:01:26.868Z,99261.23
2023-04-06T05:03:56.706Z,99264.52
2023-04-06T05:06:26.748Z,99266.27
2023-04-06T05:08:55.434Z,99266.66
2023-04-06T05:11:25.257Z,99269.33
2023-04-06T05:13:58.239Z,99268.18
2023-04-06T05:16:27.290Z,99269.14
2023-04-06T05:18:58.359Z,99268.93
2023-04-06T05:21:29.556Z,99269.73
2023-04-06T05:24:03.749Z,99271.46
2023-04-06T05:26:32.742Z,99277.48
2023-04-06T05:29:05.124Z,99274.45
2023-04-06T05:31:36.170Z,99273.89
2023-04-06T05:34:04.669Z,99274.52
2023-04-06T05:36:36.304Z,99279.90
2023-04-06T05:39:08.880Z,99281.37
2023-04-06T05:41:42.377Z,99285.48
2023-04-06T05:44:14.474Z,99288.57
2023-04-06T05:46:44.725Z,99286.77
2023-04-06T05:49:15.403Z,99288.59
2023-04-06T05:51:43.633Z,99291.46
2023-04-06T05:54:11.878Z,99289.77
2023-04-06T05:56:40.862Z,99294.16
2023-04-06T05:59:12.270Z,99294.86
2023-04-06T06:01:41.683Z,99295.66
2023-04-06T06:04:10.512Z,99298.93
2023-04-06T06:06:40.839Z,99301.09
2023-04-06T06:09:27.898Z,99304.08
2023-04-06T06:12:05.926Z,99307.02
2023-04-06T06:14:34.177Z,99309.98
2023-04-06T06:17:02.586Z,99310.89
2023-04-06T06:19:31.445Z,99310.19
2023-04-06T06:22:03.760Z,99310.90
2023-04-06T06:24:32.729Z,99316.95
2023-04-06T06:27:01.578Z,99321.06
2023-04-06T06:29:31.696Z,99318.16
2023-04-06T06:32:00.456Z,99314.55
2023-04-06T06:34:29.104Z,99317.45
2023-04-06T06:36:59.061Z,99317.13
2023-04-06T06:39:28.223Z,99323.48
2023-04-06T06:42:01.752Z,99322.14
2023-04-06T06:44:46.559Z,99324.17
2023-04-06T06:47:15.079Z,99329.49
2023-04-06T06:49:43.372Z,99330.41
2023-04-06T06:52:11.705Z,99330.48
2023-04-06T06:54:40.101Z,99334.23
2023-04-06T06:57:08.436Z,99332.40
2023-04-06T06:59:37.412Z,99326.77
2023-04-06T07:02:06.059Z,99329.04
2023-04-06T07:04:35.035Z,99329.13
2023-04-06T07:07:05.074Z,99333.85
2023-04-06T07:09:34.586Z,99334.50
2023-04-06T07:12:03.183Z,99336.45
2023-04-06T07:14:34.142Z,99339.60
2023-04-06T07:17:03.050Z,99339.89
2023-04-06T07:19:31.996Z,99344.37
2023-04-06T07:22:04.973Z,99343.23
2023-04-06T07:24:33.373Z,99339.19
2023-04-06T07:27:01.815Z,99339.85
2023-04-06T07:29:30.756Z,99344.56
2023-04-06T07:31:59.435Z,99346.77
2023-04-06T07:34:29.197Z,99349.45
2023-04-06T07:36:59.884Z,99353.44
2023-04-06T07:39:29.266Z,99361.30
2023-04-06T07:41:58.212Z,99361.53
2023-04-06T07:44:28.021Z,99362.12
2023-04-06T07:46:58.887Z,99361.06
2023-04-06T07:49:30.885Z,99363.65
2023-04-06T07:52:04.052Z,99373.50
2023-04-06T07:54:38.234Z,99371.81
2023-04-06T07:57:06.526Z,99370.65
2023-04-06T07:59:39.718Z,99370.95
2023-04-06T08:02:11.515Z,99372.13
2023-04-06T08:04:40.104Z,99378.63
2023-04-06T08:07:11.350Z,99378.77
2023-04-06T08:09:40.426Z,99378.17
2023-04-06T08:12:09.096Z,99381.25
2023-04-06T08:14:37.272Z,99379.72
2023-04-06T08:17:06.604Z,99386.36
2023-04-06T08:19:35.276Z,99387.23
2023-04-06T08:22:03.684Z,99389.90
2023-04-06T08:24:33.589Z,99389.48
2023-04-06T08:27:02.275Z,99394.02
2023-04-06T08:29:32.030Z,99392.80
2023-04-06T08:32:00.322Z,99391.98
2023-04-06T08:34:29.678Z,99397.59
2023-04-06T08:36:58.040Z,99402.59
2023-04-06T08:39:28.359Z,99401.78
2023-04-06T08:42:01.121Z,99405.63
2023-04-06T08:44:31.197Z,99409.66
2023-04-06T08:47:00.579Z,99414.81
2023-04-06T08:49:29.073Z,99419.36
2023-04-06T08:51:58.466Z,99416.40
2023-04-06T08:54:26.829Z,99420.52
2023-04-06T08:56:54.962Z,99421.36
2023-04-06T08:59:24.287Z,99424.37
2023-04-06T09:01:52.775Z,99429.34
2023-04-06T09:04:21.878Z,99429.24
2023-04-06T09:06:51.224Z,99432.92
2023-04-06T09:09:20.692Z,99437.02
2023-04-06T09:11:51.272Z,99442.27
2023-04-06T09:14:39.329Z,99449.11
2023-04-06T09:17:07.814Z,99452.38
2023-04-06T09:19:47.360Z,99459.74
2023-04-06T09:22:16.110Z,99461.08
2023-04-06T09:24:51.544Z,99461.89
2023-04-06T09:27:31.419Z,99468.42
2023-04-06T09:30:15.452Z,99466.52
2023-04-06T09:32:53.853Z,99466.66
2023-04-06T09:35:23.320Z,99469.43
2023-04-06T09:37:52.928Z,99478.45
2023-04-06T09:40:23.386Z,99478.61
2023-04-06T09:42:53.877Z,99481.67
2023-04-06T09:45:22.417Z,99480.95
2023-04-06T09:47:52.837Z,99481.21
2023-04-06T09:50:21.669Z,99478.64
2023-04-06T09:52:55.680Z,99481.58
2023-04-06T09:55:41.437Z,99484.89
2023-04-06T09:58:20.502Z,99485.77
2023-04-06T10:01:03.302Z,99492.40
2023-04-06T10:03:59.133Z,99495.42
2023-04-06T10:06:28.508Z,99498.13
2023-04-06T10:08:56.769Z,99499.91
2023-04-06T10:11:28.637Z,99503.27
2023-04-06T10:13:56.908Z,99506.26
2023-04-06T10:16:26.408Z,99511.73
2023-04-06T10:19:08.414Z,99515.84
2023-04-06T10:21:37.513Z,99520.69
2023-04-06T10:24:11.865Z,99520.27
2023-04-06T10:26:41.101Z,99527.14
2023-04-06T10:29:09.475Z,99530.33
2023-04-06T10:31:41.272Z,99534.72
2023-04-06T10:34:10.784Z,99541.15
2023-04-06T10:36:44.297Z,99541.10
2023-04-06T10:39:12.618Z,99546.54
2023-04-06T10:41:45.832Z,99545.79
2023-04-06T10:44:24.922Z,99547.16
2023-04-06T10:46:55.192Z,99549.35
2023-04-06T10:49:27.393Z,99551.98
2023-04-06T10:51:56.796Z,99555.98
2023-04-06T10:54:26.070Z,99557.96
2023-04-06T10:56:54.595Z,99556.98
2023-04-06T10:59:23.217Z,99557.59
2023-04-06T11:01:52.596Z,99562.66
2023-04-06T11:04:22.918Z,99558.76
2023-04-06T11:06:51.857Z,99559.56
2023-04-06T11:09:32.658Z,99562.21
2023-04-06T11:12:01.932Z,99562.01
2023-04-06T11:14:31.381Z,99563.52
2023-04-06T11:16:59.457Z,99569.73
2023-04-06T11:19:28.356Z,99570.30
2023-04-06T11:21:59.834Z,99570.80
2023-04-06T11:24:28.293Z,99570.73
2023-04-06T11:27:02.154Z,99572.59
2023-04-06T11:29:31.919Z,99574.86
2023-04-06T11:32:01.325Z,99576.75
2023-04-06T11:34:31.042Z,99579.39
2023-04-06T11:37:00.880Z,99583.94
2023-04-06T11:39:30.061Z,99590.85
2023-04-06T11:41:59.884Z,99590.75
2023-04-06T11:44:50.762Z,99591.44
2023-04-06T11:47:20.066Z,99593.77
2023-04-06T11:49:48.772Z,99592.77
2023-04-06T11:52:20.035Z,99596.47
2023-04-06T11:54:49.338Z,99599.05
2023-04-06T11:57:18.310Z,99601.01
2023-04-06T11:59:47.519Z,99605.59
2023-04-06T12:02:16.243Z,99602.37
2023-04-06T12:04:45.271Z,99604.18
2023-04-06T12:07:15.840Z,99602.80
2023-04-06T12:09:45.622Z,99604.64
2023-04-06T12:12:14.236Z,99607.53
2023-04-06T12:14:45.184Z,99602.93
2023-04-06T12:17:14.857Z,99602.98
2023-04-06T12:19:43.166Z,99606.56
2023-04-06T12:22:11.797Z,99605.88
2023-04-06T12:24:40.669Z,99610.20
2023-04-06T12:27:10.816Z,99609.13
2023-04-06T12:29:40.707Z,99608.98
2023-04-06T12:32:09.504Z,99609.02
2023-04-06T12:34:39.052Z,99609.44
2023-04-06T12:37:07.554Z,99607.58
2023-04-06T12:39:36.625Z,99610.57
2023-04-06T12:42:05.894Z,99611.23
2023-04-06T12:44:34.370Z,99613.28
2023-04-06T12:47:04.536Z,99615.00
2023-04-06T12:49:33.289Z,99618.42
2023-04-06T12:52:06.491Z,99619.72
2023-04-06T12:54:34.993Z,99619.71
2023-04-06T12:57:03.470Z,99627.02
2023-04-06T12:59:36.721Z,99630.70
2023-04-06T13:02:06.135Z,99632.95
2023-04-06T13:04:34.439Z,99632.19
2023-04-06T13:07:06.621Z,99631.98
2023-04-06T13:09:38.156Z,99634.04
2023-04-06T13:12:06.649Z,99636.17
2023-04-06T13:14:34.931Z,99638.03
2023-04-06T13:17:03.333Z,99637.06
2023-04-06T13:19:32.545Z,99641.17
2023-04-06T13:22:03.356Z,99643.44
2023-04-06T13:24:31.841Z,99645.27
2023-04-06T13:27:00.235Z,99650.20
2023-04-06T13:29:28.733Z,99648.94
2023-04-06T13:31:57.077Z,99652.42
2023-04-06T13:34:26.192Z,99654.69
2023-04-06T13:36:54.642Z,99649.41
2023-04-06T13:39:28.905Z,99653.02
2023-04-06T13:41:57.814Z,99653.61
2023-04-06T13:44:26.290Z,99653.10
2023-04-06T13:46:54.794Z,99656.82
2023-04-06T13:49:23.657Z,99654.80
2023-04-06T13:51:56.268Z,99654.60
2023-04-06T13:54:24.720Z,99654.71
2023-04-06T13:56:53.130Z,99657.86
2023-04-06T13:59:22.555Z,99659.55
2023-04-06T14:01:53.548Z,99657.48
2023-04-06T14:04:22.657Z,99655.95
2023-04-06T14:06:51.642Z,99659.27
2023-04-06T14:09:20.335Z,99661.13
2023-04-06T14:11:48.823Z,99661.43
2023-04-06T14:14:18.159Z,99662.98
2023-04-06T14:16:49.842Z,99662.19
2023-04-06T14:19:22.101Z,99664.16
2023-04-06T14:21:50.679Z,99664.46
2023-04-06T14:24:19.149Z,99666.54
2023-04-06T14:26:47.609Z,99672.59
2023-04-06T14:29:17.019Z,99680.27
2023-04-06T14:31:48.005Z,99682.73
2023-04-06T14:34:17.921Z,99686.64
2023-04-06T14:36:47.382Z,99688.63
2023-04-06T14:39:15.873Z,99690.51
2023-04-06T14:41:44.616Z,99689.84
2023-04-06T14:44:14.544Z,99696.33
2023-04-06T14:46:44.721Z,99698.91
2023-04-06T14:49:15.931Z,99700.67
2023-04-06T14:51:44.470Z,99704.78
2023-04-06T14:54:13.344Z,99704.52
2023-04-06T14:56:41.455Z,99704.23
2023-04-06T14:59:09.952Z,99708.86
2023-04-06T15:01:38.470Z,99709.16
2023-04-06T15:04:07.334Z,99709.89
2023-04-06T15:06:37.206Z,99717.14
2023-04-06T15:09:06.532Z,99718.01
2023-04-06T15:11:34.983Z,99722.84
2023-04-06T15:14:03.302Z,99721.44
2023-04-06T15:16:33.723Z,99724.98
2023-04-06T15:19:03.074Z,99723.89
2023-04-06T15:21:33.738Z,99728.55
2023-04-06T15:24:03.039Z,99732.04
2023-04-06T15:26:31.523Z,99731.66
2023-04-06T15:29:02.201Z,99726.90
2023-04-06T15:31:37.804Z,99732.23
2023-04-06T15:34:09.329Z,99735.32
2023-04-06T15:36:39.098Z,99732.34
2023-04-06T15:39:09.878Z,99733.16
2023-04-06T15:41:39.326Z,99732.20
2023-04-06T15:44:07.868Z,99735.39
2023-04-06T15:46:36.729Z,99734.73
2023-04-06T15:49:04.883Z,99734.68
2023-04-06T15:51:33.841Z,99737.91
2023-04-06T15:54:02.474Z,99744.13
2023-04-06T15:56:30.600Z,99743.27
2023-04-06T15:59:01.388Z,99741.15
2023-04-06T16:01:31.364Z,99747.14
2023-04-06T16:04:00.954Z,99748.85
2023-04-06T16:06:29.486Z,99744.21
2023-04-06T16:08:58.295Z,99751.34
2023-04-06T16:11:26.784Z,99749.98
2023-04-06T16:13:55.602Z,99755.90
2023-04-06T16:16:24.626Z,99763.38
2023-04-06T16:18:53.015Z,99763.38
2023-04-06T16:21:21.620Z,99762.94
2023-04-06T16:23:49.999Z,99762.77
2023-04-06T16:26:18.415Z,99764.88
2023-04-06T16:28:48.430Z,99768.53
2023-04-06T16:31:18.290Z,99774.17
2023-04-06T16:33:46.801Z,99777.91
2023-04-06T16:36:15.780Z,99785.23
2023-04-06T16:38:44.116Z,99790.45
2023-04-06T16:41:12.628Z,99791.52
2023-04-06T16:43:41.188Z,99796.92
2023-04-06T16:46:09.232Z,99797.92
2023-04-06T16:48:37.445Z,99804.10
2023-04-06T16:51:07.137Z,99809.08
2023-04-06T16:53:39.439Z,99814.13
2023-04-06T16:58:39.524Z,99818.77
2023-04-06T17:01:08.106Z,99822.30
2023-04-06T17:03:37.254Z,99823.00
2023-04-06T17:06:06.286Z,99819.53
2023-04-06T17:08:34.843Z,99818.73
2023-04-06T17:11:04.582Z,99821.86
2023-04-06T17:13:35.414Z,99823.42
2023-04-06T17:16:04.187Z,99824.10
2023-04-06T17:18:32.423Z,99825.58
2023-04-06T17:21:07.284Z,99827.17
2023-04-06T17:23:36.886Z,99831.22
2023-04-06T17:26:06.172Z,99836.63
2023-04-06T17:28:36.266Z,99844.48
2023-04-06T17:31:10.679Z,99844.23
2023-04-06T17:33:40.232Z,99848.59
2023-04-06T17:36:09.979Z,99851.91
2023-04-06T17:38:44.416Z,99852.50
2023-04-06T17:41:13.358Z,99856.14
2023-04-06T17:43:42.354Z,99853.42
2023-04-06T17:46:10.874Z,99857.77
2023-04-06T17:48:39.369Z,99862.27
2023-04-06T17:51:07.702Z,99863.43
2023-04-06T17:53:37.245Z,99866.48
2023-04-06T17:56:06.364Z,99870.77
2023-04-06T17:58:35.671Z,99872.98
2023-04-06T18:01:08.787Z,99873.35
2023-04-06T18:03:39.906Z,99872.46
2023-04-06T18:06:14.168Z,99875.52
2023-04-06T18:08:42.293Z,99875.54
2023-04-06T18:11:17.538Z,99877.88
2023-04-06T18:13:45.920Z,99878.88
2023-04-06T18:16:22.925Z,99884.95
2023-04-06T18:18:53.430Z,99883.20
2023-04-06T18:21:21.594Z,99879.18
2023-04-06T18:23:49.991Z,99882.49
2023-04-06T18:26:19.384Z,99881.35
2023-04-06T18:28:47.882Z,99880.83
2023-04-06T18:31:16.638Z,99878.63
2023-04-06T18:33:45.364Z,99876.12
2023-04-06T18:36:14.828Z,99874.27
2023-04-06T18:38:44.456Z,99872.40
2023-04-06T18:41:14.832Z,99872.80
2023-04-06T18:43:43.226Z,99872.11
2023-04-06T18:46:15.882Z,99878.10
2023-04-06T18:48:44.451Z,99875.52
2023-04-06T18:51:13.158Z,99876.81
2023-04-06T18:53:41.839Z,99876.67
2023-04-06T18:56:14.860Z,99877.13
2023-04-06T18:58:42.975Z,99873.18
2023-04-06T19:01:11.400Z,99876.30
2023-04-06T19:03:40.546Z,99880.86
2023-04-06T19:06:08.884Z,99883.45
2023-04-06T19:08:37.465Z,99884.27
2023-04-06T19:11:08.345Z,99888.20
2023-04-06T19:13:38.349Z,99889.58
2023-04-06T19:16:10.197Z,99895.71
2023-04-06T19:18:42.904Z,99897.06
2023-04-06T19:21:21.928Z,99902.84
2023-04-06T19:23:55.303Z,99904.83
2023-04-06T19:26:27.159Z,99905.09
2023-04-06T19:28:55.398Z,99905.91
2023-04-06T19:31:23.680Z,99907.12
2023-04-06T19:33:52.032Z,99903.38
2023-04-06T19:36:26.216Z,99908.02
2023-04-06T19:38:54.903Z,99909.09
2023-04-06T19:41:23.892Z,99913.50
2023-04-06T19:43:52.487Z,99915.40
2023-04-06T19:46:21.682Z,99916.52
2023-04-06T19:48:50.078Z,99917.02
2023-04-06T19:51:18.727Z,99912.85
2023-04-06T19:53:47.189Z,99914.11
2023-04-06T19:56:16.384Z,99918.83
2023-04-06T19:58:44.866Z,99923.23
2023-04-06T20:01:13.409Z,99922.89
2023-04-06T20:03:42.056Z,99926.83
2023-04-06T20:06:11.210Z,99925.27
2023-04-06T20:08:40.314Z,99928.91
2023-04-06T20:11:08.643Z,99933.38
2023-04-06T20:13:37.707Z,99931.91
2023-04-06T20:16:06.289Z,99934.05
2023-04-06T20:18:51.947Z,99933.34
2023-04-06T20:21:21.088Z,99934.20
2023-04-06T20:23:49.650Z,99936.82
2023-04-06T20:26:17.928Z,99938.52
2023-04-06T20:28:46.514Z,99941.96
2023-04-06T20:31:18.107Z,99942.95
2023-04-06T20:33:47.074Z,99944.52
2023-04-06T20:36:15.450Z,99946.27
2023-04-06T20:38:48.137Z,99946.40
2023-04-06T20:41:16.585Z,99951.48
2023-04-06T20:43:45.413Z,99946.48
2023-04-06T20:46:19.765Z,99950.34
2023-04-06T20:48:48.219Z,99947.20
2023-04-06T20:51:18.270Z,99952.06
2023-04-06T20:53:47.444Z,99951.48
2023-04-06T20:56:22.114Z,99953.95
2023-04-06T20:58:50.587Z,99957.55
2023-04-06T21:01:19.252Z,99958.34
2023-04-06T21:03:48.994Z,99953.38
2023-04-06T21:06:17.390Z,99954.52
2023-04-06T21:08:45.827Z,99957.52
2023-04-06T21:11:17.864Z,99955.82
2023-04-06T21:13:46.104Z,99949.77
2023-04-06T21:16:18.553Z,99947.88
2023-04-06T21:18:48.690Z,99944.21
2023-04-06T21:21:17.046Z,99943.03
2023-04-06T21:23:46.705Z,99941.71
2023-04-06T21:26:15.572Z,99945.88
2023-04-06T21:28:43.836Z,99953.21
2023-04-06T21:31:12.932Z,99956.81
2023-04-06T21:33:42.843Z,99958.02
2023-04-06T21:36:11.143Z,99962.70
2023-04-06T21:38:40.453Z,99966.30
2023-04-06T21:41:08.741Z,99967.24
2023-04-06T21:43:39.269Z,99970.95
2023-04-06T21:46:07.536Z,99977.95
2023-04-06T21:48:37.242Z,99981.70
2023-04-06T21:51:05.522Z,99982.75
2023-04-06T21:53:35.017Z,99992.45
2023-04-06T21:56:03.528Z,99992.64
2023-04-06T21:58:35.511Z,99998.72
2023-04-06T22:01:03.977Z,100000.35
2023-04-06T22:03:32.557Z,100001.79
2023-04-06T22:06:06.051Z,100002.90
2023-04-06T22:08:34.551Z,100005.32
2023-04-06T22:11:08.803Z,100005.23
2023-04-06T22:13:39.260Z,100002.88
2023-04-06T22:16:07.897Z,100004.73
2023-04-06T22:18:46.290Z,100004.00
2023-04-06T22:21:14.718Z,100003.95
2023-04-06T22:23:43.387Z,100002.33
2023-04-06T22:26:13.708Z,100006.41
2023-04-06T22:28:43.298Z,100007.30
2023-04-06T22:31:11.348Z,100004.10
2023-04-06T22:33:41.294Z,100004.08
2023-04-06T22:36:11.261Z,100002.81
2023-04-06T22:38:40.286Z,100007.07
2023-04-06T22:41:08.807Z,100006.59
2023-04-06T22:43:37.442Z,100007.30
2023-04-06T22:46:06.283Z,100005.32
2023-04-06T22:48:34.551Z,100005.80
2023-04-06T22:51:02.853Z,100002.83
2023-04-06T22:53:33.701Z,100001.40
2023-04-06T22:56:02.474Z,99997.29
2023-04-06T22:58:31.162Z,99998.80
2023-04-06T23:01:00.730Z,100005.33
2023-04-06T23:03:30.831Z,100003.67
2023-04-06T23:05:59.094Z,100000.64
2023-04-06T23:08:27.470Z,99999.81
2023-04-06T23:10:56.265Z,100000.39
2023-04-06T23:13:26.271Z,99993.19
2023-04-06T23:15:54.657Z,99992.44
2023-04-06T23:18:23.941Z,99989.98
2023-04-06T23:20:53.161Z,99988.71
2023-04-06T23:23:21.418Z,99988.70
2023-04-06T23:25:50.954Z,99989.92
2023-04-06T23:28:19.476Z,99988.80
2023-04-06T23:30:48.441Z,99988.51
2023-04-06T23:33:20.097Z,99987.16
2023-04-06T23:35:49.798Z,99988.11
2023-04-06T23:38:20.464Z,99987.10
2023-04-06T23:40:48.620Z,99992.48
2023-04-06T23:43:17.562Z,99991.44
2023-04-06T23:45:45.898Z,99992.00
2023-04-06T23:48:14.724Z,99991.44
2023-04-06T23:50:43.250Z,99990.23
2023-04-06T23:53:17.597Z,99986.70
2023-04-06T23:55:46.338Z,99986.84
2023-04-06T23:58:14.976Z,99982.95
